Time;durP1;ratioP1;P1;durP2;ratioP2;P2;SDS_P1;SDS_P2;PMS_P1;PMS_P2;Temp;Humidity;BMP_temperature;BMP_pressure;BME280_temperature;BME280_humidity;BME280_pressure;Samples;Min_cycle;Max_cycle;Signal;HPM_P1;HPM_P2
2024/01/28 00:01:24;;;;;;;18.90;11.90;;;;;;;1.88;77.20;100248.27;107272;1256;72633;-40
2024/01/28 00:03:52;;;;;;;17.20;11.30;;;;;;;1.80;77.22;100252.84;107211;1261;68107;-40
2024/01/28 00:06:20;;;;;;;17.70;12.10;;;;;;;1.79;77.24;100254.92;107120;1257;70159;-40
2024/01/28 00:08:48;;;;;;;16.70;11.40;;;;;;;1.83;77.30;100256.75;107228;1256;60164;-40
2024/01/28 00:11:15;;;;;;;17.80;12.20;;;;;;;1.82;77.43;100262.86;107231;1261;60327;-40
2024/01/28 00:13:43;;;;;;;17.80;11.50;;;;;;;1.79;77.55;100265.99;107083;1257;74284;-40
2024/01/28 00:16:14;;;;;;;19.20;12.20;;;;;;;1.77;77.75;100269.86;107120;1256;67422;-40
2024/01/28 00:18:42;;;;;;;23.30;12.90;;;;;;;1.77;77.79;100268.63;107250;1256;72532;-40
2024/01/28 00:21:09;;;;;;;17.90;12.10;;;;;;;1.74;77.84;100275.69;107260;1256;60432;-39
2024/01/28 00:23:37;;;;;;;17.80;11.60;;;;;;;1.77;77.77;100278.03;107266;1256;60776;-39
2024/01/28 00:26:04;;;;;;;17.50;11.20;;;;;;;1.80;77.58;100281.47;107239;1256;72572;-39
2024/01/28 00:28:32;;;;;;;18.50;12.00;;;;;;;1.75;77.45;100280.39;107215;1256;67412;-39
2024/01/28 00:30:59;;;;;;;22.00;13.40;;;;;;;1.72;78.07;100282.83;107230;1256;71554;-39
2024/01/28 00:33:27;;;;;;;19.30;12.80;;;;;;;1.72;78.04;100282.55;107277;1256;60308;-39
2024/01/28 00:38:58;;;;;;;21.00;13.30;;;;;;;1.71;78.11;100283.90;104370;1292;600284;-39
2024/01/28 00:41:28;;;;;;;18.90;12.70;;;;;;;1.75;77.89;100285.33;106757;1264;60699;-38
2024/01/28 00:43:56;;;;;;;19.90;12.80;;;;;;;1.80;77.76;100287.80;106769;1264;59311;-38
2024/01/28 00:46:24;;;;;;;19.80;12.40;;;;;;;1.79;77.96;100289.45;106708;1264;72418;-38
2024/01/28 00:48:52;;;;;;;19.90;13.40;;;;;;;1.78;78.00;100292.20;106747;1268;68745;-38
2024/01/28 00:51:20;;;;;;;18.30;12.60;;;;;;;1.75;78.04;100297.13;106714;1264;71439;-38
2024/01/28 00:53:47;;;;;;;20.30;13.30;;;;;;;1.73;78.18;100294.64;106668;1266;142157;-38
2024/01/28 00:56:16;;;;;;;17.60;12.30;;;;;;;1.70;77.71;100295.98;106734;1261;60040;-39
2024/01/28 00:58:44;;;;;;;19.30;12.40;;;;;;;1.71;77.82;100296.52;106953;1260;70977;-39
2024/01/28 01:01:12;;;;;;;20.40;13.50;;;;;;;1.76;77.92;100303.11;106766;1261;67468;-39
2024/01/28 01:03:40;;;;;;;18.30;12.80;;;;;;;1.71;77.75;100302.66;106772;1264;71413;-39
2024/01/28 01:06:08;;;;;;;18.20;13.50;;;;;;;1.66;77.97;100310.92;106826;1264;59652;-39
2024/01/28 01:08:35;;;;;;;21.20;13.30;;;;;;;1.63;78.09;100305.45;106869;1263;60171;-39
2024/01/28 01:11:05;;;;;;;22.00;13.40;;;;;;;1.59;78.08;100317.98;106863;1264;72981;-39
2024/01/28 01:13:33;;;;;;;19.70;12.10;;;;;;;1.57;78.35;100320.07;106828;1262;68500;-39
2024/01/28 01:16:00;;;;;;;18.00;12.60;;;;;;;1.63;78.32;100326.92;106873;1264;72641;-39
2024/01/28 01:18:28;;;;;;;16.90;12.20;;;;;;;1.70;78.00;100330.14;106888;1264;59685;-39
2024/01/28 01:20:56;;;;;;;20.40;12.60;;;;;;;1.69;78.22;100333.38;106932;1264;59477;-39
2024/01/28 01:23:23;;;;;;;20.30;13.50;;;;;;;1.70;78.33;100342.98;106882;1264;73062;-39
2024/01/28 01:25:51;;;;;;;22.00;13.90;;;;;;;1.71;78.43;100343.08;106910;1264;68399;-39
2024/01/28 01:28:18;;;;;;;20.20;14.10;;;;;;;1.70;78.37;100344.47;106874;1264;71483;-39
2024/01/28 01:30:46;;;;;;;19.90;13.30;;;;;;;1.68;78.26;100348.72;106871;1264;59573;-38
2024/01/28 01:33:14;;;;;;;19.60;13.90;;;;;;;1.70;78.05;100351.80;106870;1264;59489;-39
2024/01/28 01:35:42;;;;;;;20.40;13.50;;;;;;;1.75;78.03;100351.45;107052;1259;73037;-39
2024/01/28 01:38:09;;;;;;;18.20;13.10;;;;;;;1.74;78.00;100355.20;107057;1260;68405;-39
2024/01/28 01:40:37;;;;;;;19.70;14.10;;;;;;;1.71;78.14;100356.92;107023;1263;72762;-39
2024/01/28 01:43:09;;;;;;;21.60;14.30;;;;;;;1.65;78.01;100355.95;107051;1260;59436;-39
2024/01/28 01:45:37;;;;;;;21.40;14.30;;;;;;;1.60;78.43;100355.76;107085;1259;60045;-39
2024/01/28 01:48:14;;;;;;;22.10;14.30;;;;;;;1.56;78.49;100357.55;107025;1259;72975;-39
2024/01/28 01:50:43;;;;;;;21.30;13.70;;;;;;;1.61;78.41;100360.83;107539;1257;68451;-39
2024/01/28 01:53:10;;;;;;;21.10;13.50;;;;;;;1.67;78.27;100366.04;107742;1251;72658;-39
2024/01/28 01:55:39;;;;;;;20.20;13.10;;;;;;;1.66;78.32;100369.03;107562;1251;59607;-39
2024/01/28 01:58:07;;;;;;;18.80;13.50;;;;;;;1.66;78.46;100370.90;107772;1250;59589;-39
2024/01/28 02:00:35;;;;;;;21.40;14.10;;;;;;;1.62;78.33;100369.11;107772;1251;71449;-39
2024/01/28 02:03:03;;;;;;;22.90;14.60;;;;;;;1.58;78.59;100370.58;107735;1254;68369;-39
2024/01/28 02:05:31;;;;;;;21.10;14.10;;;;;;;1.56;78.32;100369.02;107793;1254;71378;-39
2024/01/28 02:07:58;;;;;;;20.80;13.80;;;;;;;1.57;78.19;100369.88;107711;1251;59584;-38
2024/01/28 02:10:26;;;;;;;18.70;13.30;;;;;;;1.63;78.41;100365.48;107741;1251;59142;-39
2024/01/28 02:12:53;;;;;;;20.70;13.90;;;;;;;1.63;78.53;100372.05;107688;1251;73032;-39
2024/01/28 02:15:21;;;;;;;21.30;14.10;;;;;;;1.63;78.69;100376.12;107600;1251;68359;-39
2024/01/28 02:17:49;;;;;;;21.30;14.60;;;;;;;1.62;78.78;100379.54;107606;1252;72690;-38
2024/01/28 02:20:16;;;;;;;21.70;14.80;;;;;;;1.61;78.82;100379.33;107726;1256;59483;-38
2024/01/28 02:22:44;;;;;;;19.80;13.50;;;;;;;1.63;78.66;100387.23;107664;1251;60008;-38
2024/01/28 02:25:11;;;;;;;18.90;13.10;;;;;;;1.69;78.33;100386.65;107722;1255;72988;-38
2024/01/28 02:27:40;;;;;;;20.20;14.00;;;;;;;1.72;78.08;100388.20;107663;1251;67378;-38
2024/01/28 02:30:09;;;;;;;21.00;14.40;;;;;;;1.68;78.27;100385.80;107617;1251;71716;-38
2024/01/28 02:32:36;;;;;;;21.60;14.50;;;;;;;1.65;78.31;100389.67;107707;1256;59733;-39
2024/01/28 02:35:05;;;;;;;24.30;14.50;;;;;;;1.62;78.34;100392.69;107667;1251;59573;-39
2024/01/28 02:37:33;;;;;;;23.00;14.30;;;;;;;1.61;78.41;100394.92;107712;1251;73027;-39
2024/01/28 02:40:00;;;;;;;19.80;13.60;;;;;;;1.66;78.43;100400.10;107693;1251;68440;-39
2024/01/28 02:42:28;;;;;;;18.20;13.10;;;;;;;1.73;78.29;100401.83;107695;1254;71394;-39
2024/01/28 02:44:56;;;;;;;21.90;13.80;;;;;;;1.72;77.91;100405.09;107679;1251;59535;-39
2024/01/28 02:47:23;;;;;;;20.00;14.70;;;;;;;1.70;78.03;100404.52;107749;1251;59174;-39
2024/01/28 02:49:51;;;;;;;22.60;15.30;;;;;;;1.67;78.05;100405.48;107754;1250;73017;-38
2024/01/28 02:52:19;;;;;;;20.80;14.80;;;;;;;1.65;78.34;100407.52;107738;1251;68575;-39
2024/01/28 02:54:46;;;;;;;23.40;14.30;;;;;;;1.64;78.08;100409.36;107717;1257;72617;-39
2024/01/28 02:57:14;;;;;;;21.00;13.70;;;;;;;1.68;78.03;100412.58;107715;1254;59618;-38
2024/01/28 02:59:41;;;;;;;20.10;14.50;;;;;;;1.72;77.73;100417.17;107701;1251;59720;-39
2024/01/28 03:02:10;;;;;;;21.80;14.90;;;;;;;1.72;77.91;100416.05;107686;1251;73227;-39
2024/01/28 03:04:37;;;;;;;23.00;15.10;;;;;;;1.69;78.10;100423.40;107745;1251;67450;-39
2024/01/28 03:07:06;;;;;;;23.50;16.00;;;;;;;1.66;78.37;100429.55;107725;1254;72673;-39
2024/01/28 03:09:33;;;;;;;23.10;15.10;;;;;;;1.63;78.26;100436.83;107748;1250;59513;-39
2024/01/28 03:12:01;;;;;;;19.90;13.40;;;;;;;1.60;78.02;100440.10;107747;1251;59269;-38
2024/01/28 03:14:29;;;;;;;21.30;14.00;;;;;;;1.64;78.00;100442.59;107751;1250;73047;-38
2024/01/28 03:16:56;;;;;;;23.20;15.20;;;;;;;1.64;77.97;100447.46;107722;1256;67560;-38
2024/01/28 03:19:23;;;;;;;22.00;14.80;;;;;;;1.58;77.96;100454.81;107701;1250;72321;-38
2024/01/28 03:21:51;;;;;;;26.50;16.00;;;;;;;1.53;78.31;100456.77;107725;1251;59756;-39
2024/01/28 03:24:19;;;;;;;24.40;16.50;;;;;;;1.50;78.52;100458.85;107733;1251;59290;-39
2024/01/28 03:26:46;;;;;;;23.00;14.70;;;;;;;1.50;78.63;100465.27;107705;1251;73291;-39
2024/01/28 03:29:14;;;;;;;19.30;13.30;;;;;;;1.53;78.43;100462.73;107744;1251;67254;-39
2024/01/28 03:31:42;;;;;;;22.70;15.20;;;;;;;1.59;78.27;100470.10;107715;1251;72776;-39
2024/01/28 03:34:09;;;;;;;22.90;15.50;;;;;;;1.59;78.28;100474.06;107733;1250;59675;-39
2024/01/28 03:36:37;;;;;;;22.30;15.70;;;;;;;1.59;78.48;100478.13;107706;1250;60013;-39
2024/01/28 03:39:05;;;;;;;25.00;16.10;;;;;;;1.57;78.50;100482.77;107642;1250;73060;-39
2024/01/28 03:41:32;;;;;;;24.90;16.00;;;;;;;1.53;78.56;100486.27;107576;1250;67433;-39
2024/01/28 03:44:00;;;;;;;22.70;14.80;;;;;;;1.52;78.46;100486.58;107568;1256;72494;-39
2024/01/28 03:46:27;;;;;;;21.70;14.90;;;;;;;1.54;78.22;100490.80;107594;1251;60910;-39
2024/01/28 03:48:55;;;;;;;21.10;15.30;;;;;;;1.55;78.28;100488.11;107671;1250;60052;-38
2024/01/28 03:51:23;;;;;;;23.70;16.20;;;;;;;1.51;78.55;100489.46;107692;1250;73053;-38
2024/01/28 03:53:51;;;;;;;26.10;16.40;;;;;;;1.51;78.92;100485.84;107590;1251;68386;-38
2024/01/28 03:56:18;;;;;;;23.30;16.10;;;;;;;1.50;78.70;100490.70;107690;1251;71537;-39
2024/01/28 03:58:46;;;;;;;25.00;16.10;;;;;;;1.45;78.60;100495.54;107680;1251;59585;-39
2024/01/28 04:01:14;;;;;;;24.00;15.20;;;;;;;1.49;78.82;100496.58;107720;1250;59503;-39
2024/01/28 04:03:42;;;;;;;24.10;14.90;;;;;;;1.57;78.82;100504.69;107712;1251;72040;-39
2024/01/28 04:06:09;;;;;;;22.80;15.40;;;;;;;1.56;78.54;100505.55;107704;1256;67079;-39
2024/01/28 04:08:37;;;;;;;25.40;15.80;;;;;;;1.54;78.79;100513.31;107733;1251;71419;-39
2024/01/28 04:11:05;;;;;;;23.60;15.90;;;;;;;1.46;78.60;100504.34;107702;1252;59483;-39
2024/01/28 04:13:33;;;;;;;24.00;16.00;;;;;;;1.49;78.65;100518.61;107755;1253;59174;-39
2024/01/28 04:16:00;;;;;;;21.70;14.70;;;;;;;1.46;78.54;100518.40;107733;1251;73009;-39
2024/01/28 04:18:28;;;;;;;22.20;14.50;;;;;;;1.49;78.43;100522.56;107739;1251;68779;-39
2024/01/28 04:20:56;;;;;;;23.10;15.20;;;;;;;1.55;78.42;100524.89;107694;1256;72683;-39
2024/01/28 04:23:23;;;;;;;23.90;15.40;;;;;;;1.57;78.62;100533.06;107712;1250;59587;-39
2024/01/28 04:25:51;;;;;;;24.80;16.20;;;;;;;1.54;78.67;100534.21;107725;1256;59493;-39
2024/01/28 04:28:18;;;;;;;23.60;16.10;;;;;;;1.54;78.83;100534.69;107723;1251;73566;-39
2024/01/28 04:30:46;;;;;;;24.40;16.00;;;;;;;1.53;78.71;100537.79;107729;1250;68436;-39
2024/01/28 04:33:14;;;;;;;24.50;16.50;;;;;;;1.50;78.47;100536.72;107704;1251;72655;-39
2024/01/28 04:35:42;;;;;;;24.30;15.50;;;;;;;1.53;78.29;100535.95;107688;1254;59698;-39
2024/01/28 04:38:09;;;;;;;22.00;14.70;;;;;;;1.57;78.21;100542.52;107746;1251;59706;-39
2024/01/28 04:40:37;;;;;;;23.70;15.80;;;;;;;1.55;78.30;100545.73;107708;1251;71835;-39
2024/01/28 04:43:05;;;;;;;23.70;14.80;;;;;;;1.54;78.48;100554.10;107683;1255;68435;-39
2024/01/28 04:45:32;;;;;;;23.70;15.90;;;;;;;1.54;78.64;100551.09;107706;1250;71876;-39
2024/01/28 04:48:00;;;;;;;26.90;16.20;;;;;;;1.57;78.52;100556.54;107710;1251;59687;-39
2024/01/28 04:50:28;;;;;;;25.30;16.40;;;;;;;1.56;78.39;100564.06;107752;1250;60337;-39
2024/01/28 04:52:55;;;;;;;21.00;14.50;;;;;;;1.60;78.12;100563.38;107715;1250;72582;-39
2024/01/28 04:55:23;;;;;;;23.20;15.60;;;;;;;1.63;77.70;100563.86;107763;1250;67119;-39
2024/01/28 04:57:50;;;;;;;24.10;16.40;;;;;;;1.57;77.83;100567.11;107574;1250;72661;-39
2024/01/28 05:00:19;;;;;;;24.60;16.40;;;;;;;1.53;77.90;100571.03;107589;1251;60382;-39
2024/01/28 05:02:47;;;;;;;26.60;17.80;;;;;;;1.51;78.15;100573.37;107590;1251;60362;-39
2024/01/28 05:05:14;;;;;;;25.30;16.80;;;;;;;1.47;78.21;100578.84;107740;1250;72924;-39
2024/01/28 05:07:42;;;;;;;26.60;17.20;;;;;;;1.44;78.31;100583.13;107692;1251;67527;-39
2024/01/28 05:10:10;;;;;;;24.80;16.40;;;;;;;1.47;78.21;100585.25;107692;1251;72728;-39
2024/01/28 05:12:37;;;;;;;24.30;15.60;;;;;;;1.53;78.19;100590.81;107602;1250;60401;-39
2024/01/28 05:15:06;;;;;;;26.20;16.80;;;;;;;1.55;78.00;100591.23;107707;1250;60331;-39
2024/01/28 05:17:35;;;;;;;24.20;16.80;;;;;;;1.52;78.29;100599.63;107669;1251;73886;-38
2024/01/28 05:20:03;;;;;;;26.60;17.20;;;;;;;1.50;78.30;100602.84;106664;1257;1003738;-39
2024/01/28 05:22:33;;;;;;;24.60;16.80;;;;;;;1.49;78.36;100603.11;107638;1252;72441;-39
2024/01/28 05:25:02;;;;;;;25.60;16.10;;;;;;;1.46;78.19;100609.71;107679;1252;60415;-39
2024/01/28 05:27:30;;;;;;;27.20;17.20;;;;;;;1.47;78.00;100610.14;107709;1250;59735;-39
2024/01/28 05:29:58;;;;;;;23.20;15.80;;;;;;;1.51;78.00;100615.12;107721;1256;73939;-39
2024/01/28 05:32:26;;;;;;;26.90;16.10;;;;;;;1.52;78.08;100620.36;107740;1250;67568;-39
2024/01/28 05:34:56;;;;;;;27.10;17.70;;;;;;;1.50;78.36;100622.45;107743;1253;71370;-39
2024/01/28 05:37:23;;;;;;;32.90;18.70;;;;;;;1.46;78.11;100621.59;107731;1250;60399;-39
2024/01/28 05:39:51;;;;;;;28.60;17.10;;;;;;;1.40;78.28;100627.70;107743;1250;60450;-39
2024/01/28 05:42:19;;;;;;;26.30;17.50;;;;;;;1.38;78.34;100629.50;107739;1256;73778;-39
2024/01/28 05:44:47;;;;;;;26.30;16.50;;;;;;;1.42;78.25;100629.39;107728;1255;68394;-39
2024/01/28 05:47:14;;;;;;;28.90;18.10;;;;;;;1.46;78.27;100635.17;107692;1251;71083;-39
2024/01/28 05:49:41;;;;;;;25.50;17.10;;;;;;;1.45;78.35;100635.45;107591;1250;60331;-38
2024/01/28 05:52:09;;;;;;;28.50;17.90;;;;;;;1.46;78.52;100640.52;107716;1250;59271;-38
2024/01/28 05:54:41;;;;;;;27.30;18.30;;;;;;;1.43;78.29;100650.30;107713;1250;73890;-38
2024/01/28 05:57:10;;;;;;;31.50;18.80;;;;;;;1.37;78.69;100648.80;107754;1250;68559;-38
2024/01/28 05:59:38;;;;;;;27.30;17.30;;;;;;;1.43;78.54;100659.75;107684;1250;71400;-40
2024/01/28 06:02:05;;;;;;;25.40;16.50;;;;;;;1.49;78.47;100661.89;107701;1254;60543;-38
2024/01/28 06:04:33;;;;;;;25.40;17.20;;;;;;;1.57;78.15;100661.73;107757;1250;60539;-38
2024/01/28 06:07:00;;;;;;;25.60;16.60;;;;;;;1.56;78.01;100668.67;107703;1250;74560;-38
2024/01/28 06:09:28;;;;;;;27.20;17.70;;;;;;;1.56;78.36;100670.86;107714;1256;68336;-38
2024/01/28 06:11:56;;;;;;;27.30;17.90;;;;;;;1.55;78.09;100671.94;107724;1251;71404;-38
2024/01/28 06:14:24;;;;;;;27.30;18.10;;;;;;;1.54;78.31;100676.55;107725;1251;60316;-39
2024/01/28 06:16:51;;;;;;;26.60;17.10;;;;;;;1.53;78.10;100682.42;107601;1250;60838;-39
2024/01/28 06:19:19;;;;;;;29.10;17.20;;;;;;;1.58;77.82;100688.61;107613;1250;73853;-40
2024/01/28 06:21:46;;;;;;;26.00;16.70;;;;;;;1.64;77.79;100689.25;107678;1250;68405;-40
2024/01/28 06:24:14;;;;;;;31.80;18.10;;;;;;;1.62;77.61;100695.24;107610;1253;71451;-39
2024/01/28 06:26:42;;;;;;;27.80;17.60;;;;;;;1.57;77.78;100698.02;107628;1250;59547;-39
2024/01/28 06:29:09;;;;;;;30.60;18.70;;;;;;;1.52;77.76;100700.11;107716;1250;61123;-40
2024/01/28 06:31:37;;;;;;;30.00;19.10;;;;;;;1.50;77.92;100704.23;107688;1251;73856;-40
2024/01/28 06:34:05;;;;;;;31.10;18.60;;;;;;;1.50;78.10;100707.59;107641;1251;67438;-40
2024/01/28 06:36:32;;;;;;;29.70;18.20;;;;;;;1.53;77.90;100715.08;107635;1251;72674;-40
2024/01/28 06:39:00;;;;;;;33.20;18.30;;;;;;;1.56;77.84;100718.75;107601;1252;60290;-40
2024/01/28 06:41:28;;;;;;;27.30;17.60;;;;;;;1.54;78.10;100723.21;107498;1253;59677;-40
2024/01/28 06:43:55;;;;;;;30.40;18.30;;;;;;;1.52;78.28;100722.71;107602;1253;72542;-40
2024/01/28 06:46:23;;;;;;;27.30;17.30;;;;;;;1.52;78.23;100727.95;107487;1253;67934;-40
2024/01/28 06:48:51;;;;;;;29.00;18.20;;;;;;;1.52;78.45;100730.20;107628;1257;72493;-40
2024/01/28 06:51:18;;;;;;;30.80;18.00;;;;;;;1.53;78.35;100733.46;107470;1253;60885;-40
2024/01/28 06:53:47;;;;;;;28.80;18.00;;;;;;;1.61;78.22;100740.05;107606;1253;60100;-40
2024/01/28 06:56:16;;;;;;;26.30;17.20;;;;;;;1.68;78.02;100741.01;107624;1253;73903;-40
2024/01/28 06:58:44;;;;;;;27.50;18.00;;;;;;;1.66;77.70;100741.92;107615;1253;68683;-39
2024/01/28 07:01:11;;;;;;;29.60;18.70;;;;;;;1.61;77.89;100746.93;107556;1253;71484;-40
2024/01/28 07:03:40;;;;;;;29.90;18.60;;;;;;;1.60;78.20;100748.82;107566;1257;60329;-39
2024/01/28 07:06:11;;;;;;;30.80;19.10;;;;;;;1.59;78.36;100752.83;107404;1253;59564;-38
2024/01/28 07:08:39;;;;;;;33.50;18.80;;;;;;;1.61;78.19;100756.83;107579;1253;73827;-40
2024/01/28 07:11:06;;;;;;;28.80;17.70;;;;;;;1.68;78.05;100759.45;107506;1253;67675;-39
2024/01/28 07:13:34;;;;;;;26.00;17.00;;;;;;;1.78;77.93;100760.63;107589;1253;71792;-41
2024/01/28 07:16:01;;;;;;;27.10;17.80;;;;;;;1.76;77.58;100754.85;107451;1253;60447;-40
2024/01/28 07:18:29;;;;;;;27.70;18.10;;;;;;;1.81;77.73;100765.98;107609;1253;60460;-38
2024/01/28 07:20:57;;;;;;;29.60;18.30;;;;;;;1.81;77.51;100769.35;107486;1253;74020;-40
2024/01/28 07:23:25;;;;;;;31.80;19.80;;;;;;;1.82;77.64;100770.86;107499;1253;68693;-40
2024/01/28 07:25:52;;;;;;;29.80;17.50;;;;;;;1.83;77.43;100772.36;107593;1253;72705;-40
2024/01/28 07:28:20;;;;;;;28.70;18.60;;;;;;;1.87;77.08;100775.55;107497;1253;61215;-39
2024/01/28 07:30:47;;;;;;;26.30;17.30;;;;;;;1.94;76.77;100780.70;107506;1253;60339;-39
2024/01/28 07:33:17;;;;;;;28.50;17.80;;;;;;;1.96;76.98;100785.45;107626;1253;73806;-39
2024/01/28 07:35:45;;;;;;;30.00;18.90;;;;;;;1.96;76.94;100789.59;107619;1253;67418;-39
2024/01/28 07:38:12;;;;;;;27.20;17.90;;;;;;;1.97;76.90;100791.94;107711;1251;72720;-39
2024/01/28 07:40:40;;;;;;;28.60;18.60;;;;;;;1.95;76.90;100793.48;107686;1250;60406;-40
2024/01/28 07:43:08;;;;;;;29.50;18.40;;;;;;;1.92;76.66;100798.17;107621;1250;60181;-39
2024/01/28 07:45:37;;;;;;;30.20;18.20;;;;;;;1.87;76.63;100798.35;107567;1250;73909;-39
2024/01/28 07:48:05;;;;;;;28.70;18.20;;;;;;;1.87;76.57;100799.89;107580;1250;67400;-40
2024/01/28 07:50:33;;;;;;;27.90;18.20;;;;;;;1.90;76.47;100803.15;107733;1256;72673;-40
2024/01/28 07:53:01;;;;;;;29.20;18.60;;;;;;;1.89;76.44;100806.41;107715;1251;59203;-39
2024/01/28 07:55:29;;;;;;;29.90;18.60;;;;;;;1.89;76.84;100812.68;107709;1250;60405;-39
2024/01/28 07:57:56;;;;;;;29.20;19.10;;;;;;;1.88;76.64;100818.89;107712;1250;73996;-40
2024/01/28 08:00:25;;;;;;;28.80;17.70;;;;;;;1.84;76.55;100822.57;107608;1250;68819;-40
2024/01/28 08:02:53;;;;;;;31.20;18.40;;;;;;;1.83;76.74;100821.83;107620;1250;72663;-40
2024/01/28 08:05:23;;;;;;;29.60;17.30;;;;;;;1.90;76.76;100829.46;107694;1253;60557;-38
2024/01/28 08:07:51;;;;;;;22.40;15.70;;;;;;;1.94;76.10;100832.25;107747;1250;60479;-38
2024/01/28 08:10:18;;;;;;;25.70;17.30;;;;;;;1.93;76.26;100837.93;107651;1250;73775;-39
2024/01/28 08:12:46;;;;;;;27.50;17.50;;;;;;;1.91;76.27;100838.99;107599;1251;67556;-40
2024/01/28 08:15:13;;;;;;;27.30;17.10;;;;;;;1.87;76.49;100841.77;107593;1253;72494;-39
2024/01/28 08:17:41;;;;;;;31.40;18.70;;;;;;;1.84;76.25;100846.90;107659;1253;60540;-39
2024/01/28 08:20:09;;;;;;;26.90;17.70;;;;;;;1.82;76.61;100847.33;107759;1251;60396;-39
2024/01/28 08:22:37;;;;;;;27.70;17.20;;;;;;;1.82;76.61;100851.45;107758;1250;72547;-39
2024/01/28 08:25:05;;;;;;;26.30;17.10;;;;;;;1.85;76.13;100852.04;107719;1251;68377;-39
2024/01/28 08:27:33;;;;;;;24.60;16.30;;;;;;;1.92;76.04;100854.94;107701;1250;72618;-39
2024/01/28 08:30:01;;;;;;;22.40;15.30;;;;;;;1.94;76.13;100858.20;107674;1253;60300;-39
2024/01/28 08:32:28;;;;;;;24.70;16.70;;;;;;;1.91;75.91;100858.73;107721;1250;60483;-39
2024/01/28 08:34:56;;;;;;;25.60;16.10;;;;;;;1.84;75.89;100859.63;107722;1250;73826;-39
2024/01/28 08:37:23;;;;;;;26.70;18.20;;;;;;;1.83;76.11;100865.14;107704;1253;68507;-39
2024/01/28 08:39:51;;;;;;;25.90;17.20;;;;;;;1.84;76.19;100872.83;107743;1256;72222;-40
2024/01/28 08:42:19;;;;;;;26.40;15.90;;;;;;;1.87;76.05;100872.41;107732;1250;60922;-40
2024/01/28 08:44:47;;;;;;;22.10;13.90;;;;;;;1.92;75.59;100872.80;107727;1250;60290;-40
2024/01/28 08:47:14;;;;;;;22.40;14.40;;;;;;;1.98;75.42;100872.80;107729;1250;73857;-40
2024/01/28 08:49:42;;;;;;;20.80;14.90;;;;;;;1.98;75.47;100875.00;107725;1250;68421;-40
2024/01/28 08:52:11;;;;;;;22.40;14.90;;;;;;;1.99;75.35;100879.39;107730;1251;72506;-40
2024/01/28 08:54:38;;;;;;;22.10;15.00;;;;;;;1.98;75.24;100880.78;107578;1253;60516;-40
2024/01/28 08:57:06;;;;;;;22.90;15.40;;;;;;;1.93;74.72;100883.66;107493;1250;60366;-40
2024/01/28 08:59:34;;;;;;;21.40;15.00;;;;;;;1.87;74.69;100883.48;107704;1250;73831;-39
2024/01/28 09:02:01;;;;;;;22.90;14.50;;;;;;;1.83;74.68;100888.83;107717;1250;67370;-40
2024/01/28 09:04:33;;;;;;;19.40;13.50;;;;;;;1.83;74.52;100884.39;107742;1253;71481;-40
2024/01/28 09:07:01;;;;;;;21.50;14.60;;;;;;;1.89;74.61;100887.92;107758;1253;60524;-40
2024/01/28 09:09:28;;;;;;;20.70;14.00;;;;;;;1.90;74.79;100891.40;107717;1255;60357;-40
2024/01/28 09:11:56;;;;;;;19.10;13.10;;;;;;;1.93;74.90;100888.85;107713;1256;73826;-40
2024/01/28 09:14:26;;;;;;;16.20;10.60;;;;;;;1.95;74.96;100885.42;107774;1255;68381;-40
2024/01/28 09:16:54;;;;;;;21.00;14.30;;;;;;;1.97;74.75;100885.55;107748;1253;72670;-40
2024/01/28 09:19:21;;;;;;;26.80;16.10;;;;;;;1.95;74.38;100885.53;107750;1253;59624;-40
2024/01/28 09:21:49;;;;;;;18.80;12.40;;;;;;;1.92;74.30;100883.07;107733;1250;60520;-40
2024/01/28 09:24:17;;;;;;;16.50;12.00;;;;;;;1.94;73.87;100887.67;107735;1250;73696;-40
2024/01/28 09:26:46;;;;;;;19.80;13.90;;;;;;;1.97;73.67;100889.29;107732;1250;68425;-40
2024/01/28 09:29:15;;;;;;;21.00;13.60;;;;;;;1.97;73.74;100885.06;107684;1253;72634;-40
2024/01/28 09:31:45;;;;;;;21.10;13.60;;;;;;;1.91;73.59;100886.98;107033;1250;1002915;-40
2024/01/28 09:34:13;;;;;;;20.00;13.20;;;;;;;1.87;73.75;100882.64;107772;1253;60312;-40
2024/01/28 09:36:41;;;;;;;20.90;14.50;;;;;;;1.88;73.77;100883.98;107752;1250;72596;-40
2024/01/28 09:39:10;;;;;;;20.20;13.30;;;;;;;1.84;73.68;100885.83;107689;1250;68375;-40
2024/01/28 09:41:49;;;;;;;20.00;12.50;;;;;;;1.82;74.05;100885.45;107687;1250;72652;-40
2024/01/28 09:44:16;;;;;;;18.10;12.40;;;;;;;1.89;73.89;100882.42;107770;1253;60884;-40
2024/01/28 09:46:45;;;;;;;18.40;12.60;;;;;;;1.94;73.78;100889.05;107782;1250;60575;-40
2024/01/28 09:49:12;;;;;;;20.30;13.60;;;;;;;1.94;73.91;100891.23;107603;1250;72511;-40
2024/01/28 09:51:41;;;;;;;20.20;14.10;;;;;;;1.93;73.84;100895.30;107607;1250;68341;-40
2024/01/28 09:54:10;;;;;;;15.20;10.00;;;;;;;1.95;74.05;100897.14;107741;1253;72676;-40
2024/01/28 09:56:37;;;;;;;19.90;12.90;;;;;;;1.96;73.74;100899.55;107753;1256;60365;-40
2024/01/28 09:59:09;;;;;;;19.40;12.90;;;;;;;1.92;73.53;100901.69;107663;1250;60274;-40
2024/01/28 10:01:37;;;;;;;19.50;12.30;;;;;;;1.89;73.71;100905.48;107551;1250;73877;-39
2024/01/28 10:04:04;;;;;;;20.00;12.60;;;;;;;1.94;73.71;100904.64;107717;1250;68697;-40
2024/01/28 10:06:32;;;;;;;18.40;12.30;;;;;;;2.03;73.52;100910.90;107587;1251;72660;-40
2024/01/28 10:09:00;;;;;;;17.80;11.80;;;;;;;2.07;73.31;100911.08;107621;1250;60403;-40
2024/01/28 10:11:28;;;;;;;16.50;11.80;;;;;;;2.07;73.03;100914.60;107693;1250;60396;-40
2024/01/28 10:13:56;;;;;;;19.70;12.60;;;;;;;2.03;72.92;100915.66;107664;1256;73842;-40
2024/01/28 10:16:24;;;;;;;19.70;12.50;;;;;;;2.01;73.06;100921.17;107739;1250;68377;-40
2024/01/28 10:18:52;;;;;;;20.20;13.70;;;;;;;1.99;73.04;100919.45;107750;1256;72656;-40
2024/01/28 10:21:20;;;;;;;20.80;14.10;;;;;;;1.97;72.94;100924.48;107641;1250;60398;-39
2024/01/28 10:23:48;;;;;;;19.40;12.30;;;;;;;1.96;73.17;100921.42;107747;1250;61086;-40
2024/01/28 10:26:16;;;;;;;18.00;12.30;;;;;;;2.07;72.86;100923.48;107607;1250;72626;-40
2024/01/28 10:28:44;;;;;;;17.50;11.70;;;;;;;2.09;72.32;100920.43;107666;1250;68450;-39
2024/01/28 10:31:12;;;;;;;20.20;12.40;;;;;;;2.04;72.32;100917.42;106848;1250;1003261;-39
2024/01/28 10:33:39;;;;;;;18.40;13.00;;;;;;;2.04;72.79;100919.34;107556;1252;60330;-40
2024/01/28 10:36:08;;;;;;;18.70;12.80;;;;;;;2.06;72.93;100922.89;107635;1250;59978;-40
2024/01/28 10:38:36;;;;;;;17.30;12.20;;;;;;;2.07;73.01;100927.52;107680;1251;73128;-39
2024/01/28 10:41:05;;;;;;;16.50;11.20;;;;;;;2.06;73.06;100932.27;107753;1250;69360;-40
2024/01/28 10:43:38;;;;;;;14.90;10.60;;;;;;;2.12;72.78;100927.82;107689;1251;72778;-40
2024/01/28 10:46:07;;;;;;;17.60;11.30;;;;;;;2.22;72.68;100933.89;107762;1250;60376;-40
2024/01/28 10:48:34;;;;;;;15.20;10.90;;;;;;;2.27;72.70;100934.48;107643;1257;60439;-40
2024/01/28 10:51:02;;;;;;;19.50;12.30;;;;;;;2.31;72.69;100937.49;107730;1255;73788;-40
2024/01/28 10:53:30;;;;;;;18.00;12.20;;;;;;;2.32;72.26;100933.48;107584;1257;67605;-40
2024/01/28 10:55:59;;;;;;;21.90;13.80;;;;;;;2.31;72.01;100933.52;107625;1251;71361;-39
2024/01/28 10:58:27;;;;;;;20.40;12.60;;;;;;;2.29;71.99;100935.92;107739;1251;60491;-40
2024/01/28 11:00:56;;;;;;;18.10;12.00;;;;;;;2.28;71.81;100937.63;107613;1250;60375;-39
2024/01/28 11:03:23;;;;;;;18.40;11.30;;;;;;;2.25;71.85;100937.69;107482;1258;73809;-39
2024/01/28 11:05:51;;;;;;;14.40;10.10;;;;;;;2.31;72.04;100938.39;107735;1250;68846;-39
2024/01/28 11:08:19;;;;;;;14.80;10.30;;;;;;;2.37;71.70;100936.95;107751;1253;71054;-40
2024/01/28 11:10:47;;;;;;;14.70;10.10;;;;;;;2.36;71.48;100943.17;107728;1251;60502;-40
2024/01/28 11:13:14;;;;;;;12.80;9.70;;;;;;;2.33;71.22;100940.05;107610;1250;59633;-39
2024/01/28 11:15:42;;;;;;;14.80;10.40;;;;;;;2.32;71.25;100943.91;107490;1259;73810;-39